Philip, South Dakota
Current Conditions -  °F | °C
As of 8:55 AM on Friday 24 Oct 2014 (Local Time) from KPHP Reporting Station
Clear Clear  
Wind Chill: 43°   Ceiling: Unl
Heat Index: 43°   Visibility: 10mi
Dew Point: 35°   Wind: 3mph
Humidity: 74%   Direction: 280°W
Pressure: 29.95"   Gusts: NA
Location:  44.04°N, 101.67°W
Report Text: KPHP 241455Z AUTO 28003KT 10SM CLR 06/02 A2995 RMK AO2 SLP147 T00610017 53017
Loading
Personal Weather Stations






























Interactive Weather Map
Tropical Storm Tracking
New forecast layout! Learn more

10-Day Weather Forecast

Advertisements
Track Severe Weather on mobile